地図

経路データ

SID SEASON NUMBER BASIN SUBBASIN NAME ISO_TIME NATURE LAT LON WMO_WIND WMO_PRES WMO_AGENCY TRACK_TYPE DIST2LAND LANDFALL IFLAG USA_AGENCY USA_ATCF_ID USA_LAT USA_LON USA_RECORD USA_STATUS USA_WIND USA_PRES USA_SSHS USA_R34_NE USA_R34_SE USA_R34_SW USA_R34_NW USA_R50_NE USA_R50_SE USA_R50_SW USA_R50_NW USA_R64_NE USA_R64_SE USA_R64_SW USA_R64_NW USA_POCI USA_ROCI USA_RMW USA_EYE TOKYO_LAT TOKYO_LON TOKYO_GRADE TOKYO_WIND TOKYO_PRES TOKYO_R50_DIR TOKYO_R50_LONG TOKYO_R50_SHORT TOKYO_R30_DIR TOKYO_R30_LONG TOKYO_R30_SHORT TOKYO_LAND CMA_LAT CMA_LON CMA_CAT CMA_WIND CMA_PRES HKO_LAT HKO_LON HKO_CAT HKO_WIND HKO_PRES NEWDELHI_LAT NEWDELHI_LON NEWDELHI_GRADE NEWDELHI_WIND NEWDELHI_PRES NEWDELHI_CI NEWDELHI_DP NEWDELHI_POCI REUNION_LAT REUNION_LON REUNION_TYPE REUNION_WIND REUNION_PRES REUNION_TNUM REUNION_CI REUNION_RMW REUNION_R34_NE REUNION_R34_SE REUNION_R34_SW REUNION_R34_NW REUNION_R50_NE REUNION_R50_SE REUNION_R50_SW REUNION_R50_NW REUNION_R64_NE REUNION_R64_SE REUNION_R64_SW REUNION_R64_NW BOM_LAT BOM_LON BOM_TYPE BOM_WIND BOM_PRES BOM_TNUM BOM_CI BOM_RMW BOM_R34_NE BOM_R34_SE BOM_R34_SW BOM_R34_NW BOM_R50_NE BOM_R50_SE BOM_R50_SW BOM_R50_NW BOM_R64_NE BOM_R64_SE BOM_R64_SW BOM_R64_NW BOM_ROCI BOM_POCI BOM_EYE BOM_POS_METHOD BOM_PRES_METHOD NADI_LAT NADI_LON NADI_CAT NADI_WIND NADI_PRES WELLINGTON_LAT WELLINGTON_LON WELLINGTON_WIND WELLINGTON_PRES DS824_LAT DS824_LON DS824_STAGE DS824_WIND DS824_PRES TD9636_LAT TD9636_LON TD9636_STAGE TD9636_WIND TD9636_PRES TD9635_LAT TD9635_LON TD9635_WIND TD9635_PRES TD9635_ROCI NEUMANN_LAT NEUMANN_LON NEUMANN_CLASS NEUMANN_WIND NEUMANN_PRES MLC_LAT MLC_LON MLC_CLASS MLC_WIND MLC_PRES USA_GUST BOM_GUST BOM_GUST_PER REUNION_GUST REUNION_GUST_PER USA_SEAHGT USA_SEARAD_NE USA_SEARAD_SE USA_SEARAD_SW USA_SEARAD_NW STORM_SPEED STORM_DIR
1883335S16060 1884 33 SI MM NOT_NAMED 1883-11-30 18:00:00 NR -16.2000 60.3000 main 515 494 __________O___ -1 -16.2000 60.3000 7 5 236
1883335S16060 1884 33 SI MM NOT_NAMED 1883-11-30 21:00:00 NR -16.3471 60.0736 main 494 464 __________P___ -1 -16.3471 60.0736 7 5 235
1883335S16060 1884 33 SI MM NOT_NAMED 1883-12-01 00:00:00 NR -16.5052 59.8476 main 459 429 __________P___ -1 -16.5052 59.8476 7 6 232
1883335S16060 1884 33 SI MM NOT_NAMED 1883-12-01 03:00:00 NR -16.6858 59.6228 main 429 400 __________P___ -1 -16.6858 59.6228 7 6 227
1883335S16060 1884 33 SI MM NOT_NAMED 1883-12-01 06:00:00 NR -16.9000 59.4000 main 400 370 __________O___ -1 -16.9000 59.4000 7 6 222
1883335S16060 1884 33 SI MM NOT_NAMED 1883-12-01 09:00:00 NR -17.1543 59.1791 main 360 331 __________P___ -1 -17.1543 59.1791 7 7 218
1883335S16060 1884 33 SI MM NOT_NAMED 1883-12-01 12:00:00 NR -17.4349 58.9575 main 331 288 __________P___ -1 -17.4349 58.9575 7 7 217
1883335S16060 1884 33 SI MM NOT_NAMED 1883-12-01 15:00:00 NR -17.7230 58.7322 main 288 249 __________P___ -1 -17.7230 58.7322 7 7 218
1883335S16060 1884 33 SI MM NOT_NAMED 1883-12-01 18:00:00 NR -18.0000 58.5000 main 249 221 __________O___ -1 -18.0000 58.5000 7 7 222
1883335S16060 1884 33 SI MM NOT_NAMED 1883-12-01 21:00:00 NR -18.2394 58.2449 main 218 181 __________P___ -1 -18.2394 58.2449 7 7 226
1883335S16060 1884 33 SI MM NOT_NAMED 1883-12-02 00:00:00 NR -18.4651 57.9849 main 181 156 __________P___ -1 -18.4651 57.9849 7 7 228
1883335S16060 1884 33 SI MM NOT_NAMED 1883-12-02 03:00:00 NR -18.6832 57.7324 main 156 134 __________P___ -1 -18.6832 57.7324 7 6 227
1883335S16060 1884 33 SI MM NOT_NAMED 1883-12-02 06:00:00 NR -18.9000 57.5000 main 134 112 __________O___ -1 -18.9000 57.5000 7 6 223
1883335S16060 1884 33 SI MM NOT_NAMED 1883-12-02 09:00:00 NR -19.1289 57.2951 main 113 94 __________P___ -1 -19.1289 57.2951 7 6 219
1883335S16060 1884 33 SI MM NOT_NAMED 1883-12-02 12:00:00 NR -19.3574 57.1123 main 88 76 __________P___ -1 -19.3574 57.1123 7 6 216
1883335S16060 1884 33 SI MM NOT_NAMED 1883-12-02 15:00:00 NR -19.5821 56.9483 main 84 77 __________P___ -1 -19.5821 56.9483 7 5 213
1883335S16060 1884 33 SI MM NOT_NAMED 1883-12-02 18:00:00 NR -19.8000 56.8000 main 80 76 __________O___ -1 -19.8000 56.8000 7 5 217
1883335S16060 1884 33 SI MM NOT_NAMED 1883-12-02 21:00:00 NR -19.9706 56.6362 main 89 85 __________P___ -1 -19.9706 56.6362 7 4 221
1883335S16060 1884 33 SI MM NOT_NAMED 1883-12-03 00:00:00 NR -20.1400 56.4900 main 94 89 __________P___ -1 -20.1400 56.4900 7 4 214
1883335S16060 1884 33 SI MM NOT_NAMED 1883-12-03 03:00:00 NR -20.3394 56.3739 main 96 76 __________P___ -1 -20.3394 56.3739 7 5 201
1883335S16060 1884 33 SI MM NOT_NAMED 1883-12-03 06:00:00 NR -20.6000 56.3000 main 76 53 __________O___ -1 -20.6000 56.3000 7 7 190
1883335S16060 1884 33 SI MM NOT_NAMED 1883-12-03 09:00:00 NR -20.9846 56.2575 main 53 51 __________P___ -1 -20.9846 56.2575 7 8 182
1883335S16060 1884 33 SI MM NOT_NAMED 1883-12-03 12:00:00 NR -21.4273 56.2601 main 52 52 __________P___ -1 -21.4273 56.2601 7 9 177
1883335S16060 1884 33 SI MM NOT_NAMED 1883-12-03 15:00:00 NR -21.8814 56.3076 main 84 84 __________P___ -1 -21.8814 56.3076 7 9 172
1883335S16060 1884 33 SI MM NOT_NAMED 1883-12-03 18:00:00 NR -22.3000 56.4000 main 127 127 __________O___ -1 -22.3000 56.4000 7 8 165
1883335S16060 1884 33 SI MM NOT_NAMED 1883-12-03 21:00:00 NR -22.6303 56.5276 main 162 162 __________P___ -1 -22.6303 56.5276 7 7 156
1883335S16060 1884 33 SI MM NOT_NAMED 1883-12-04 00:00:00 NR -22.9175 56.6973 main 201 201 __________P___ -1 -22.9175 56.6973 7 6 148
1883335S16060 1884 33 SI MM NOT_NAMED 1883-12-04 03:00:00 NR -23.1710 56.8933 main 240 240 __________P___ -1 -23.1710 56.8933 7 6 142
1883335S16060 1884 33 SI MM NOT_NAMED 1883-12-04 06:00:00 NR -23.4000 57.1000 main 270 270 __________O___ -1 -23.4000 57.1000 7 6 141
1883335S16060 1884 33 SI MM NOT_NAMED 1883-12-04 09:00:00 NR -23.6297 57.2970 main 299 299 __________P___ -1 -23.6297 57.2970 7 6 140
1883335S16060 1884 33 SI MM NOT_NAMED 1883-12-04 12:00:00 NR -23.8375 57.5002 main 329 329 __________P___ -1 -23.8375 57.5002 7 5 137
1883335S16060 1884 33 SI MM NOT_NAMED 1883-12-04 15:00:00 NR -24.0266 57.7032 main 359 359 __________P___ -1 -24.0266 57.7032 7 5 135
1883335S16060 1884 33 SI MM NOT_NAMED 1883-12-04 18:00:00 NR -24.2000 57.9000 main 389 389 __________O___ -1 -24.2000 57.9000 7 5 135
1883335S16060 1884 33 SI MM NOT_NAMED 1883-12-04 21:00:00 NR -24.3683 58.0744 main 419 419 __________P___ -1 -24.3683 58.0744 7 5 136
1883335S16060 1884 33 SI MM NOT_NAMED 1883-12-05 00:00:00 NR -24.5222 58.2429 main 433 433 __________P___ -1 -24.5222 58.2429 7 4 134
1883335S16060 1884 33 SI MM NOT_NAMED 1883-12-05 03:00:00 NR -24.6651 58.4150 main 463 463 __________P___ -1 -24.6651 58.4150 7 4 131
1883335S16060 1884 33 SI MM NOT_NAMED 1883-12-05 06:00:00 NR -24.8000 58.6000 main 484 484 __________O___ -1 -24.8000 58.6000 7 4 127
1883335S16060 1884 33 SI MM NOT_NAMED 1883-12-05 09:00:00 NR -24.9322 58.8107 main 504 504 __________P___ -1 -24.9322 58.8107 7 5 123
1883335S16060 1884 33 SI MM NOT_NAMED 1883-12-05 12:00:00 NR -25.0575 59.0352 main 531 531 __________P___ -1 -25.0575 59.0352 7 5 121
1883335S16060 1884 33 SI MM NOT_NAMED 1883-12-05 15:00:00 NR -25.1790 59.2670 main 550 550 __________P___ -1 -25.1790 59.2670 7 5 120
1883335S16060 1884 33 SI MM NOT_NAMED 1883-12-05 18:00:00 NR -25.3000 59.5000 main 567 567 __________O___ -1 -25.3000 59.5000 7 5 120
1883335S16060 1884 33 SI MM NOT_NAMED 1883-12-05 21:00:00 NR -25.4229 59.7292 main 584 584 __________P___ -1 -25.4229 59.7292 7 5 121
1883335S16060 1884 33 SI MM NOT_NAMED 1883-12-06 00:00:00 NR -25.5477 59.9546 main 606 606 __________P___ -1 -25.5477 59.9546 7 5 122
1883335S16060 1884 33 SI MM NOT_NAMED 1883-12-06 03:00:00 NR -25.6736 60.1778 main 634 634 __________P___ -1 -25.6736 60.1778 7 5 122
1883335S16060 1884 33 SI MM NOT_NAMED 1883-12-06 06:00:00 NR -25.8000 60.4000 main 653 __________O___ -1 -25.8000 60.4000 7 5 122

IBTrACS Databaseについて

本データベースは、米国NOAAが公開する1842年以降の世界の熱帯低気圧のベストトラックデータアーカイブInternational Best Track Archive for Climate Stewardship (IBTrACS)を、ウェブで閲覧しやすい形式に変換したものです。

最終更新日:2021-12-03